首页
METAR-TAF:

METAR-TAF

机场 :

圖爾恰, 罗马尼亚

纬度: 45-11N, 经度: 028-49E, 海拔: 4米

当前天气观测

该预报发布于22分钟前的01:30 UTC
风速5节,风向西
温度 15°C
湿度 94%
气压 1007 hPa
能见度10公里或以上

METAR: LRTC 250130Z AUTO 26005KT 9999 FEW050/// BKN170/// 15/14 Q1007

时间: 04:52 (01:52 UTC)

预报

该预报发布于11小时和52分钟前的14:00 UTC
预报有效从24日的 15点(UTC)到 24日的 24点(UTC)
风速8节,风向西南
能见度10公里或以上
散云层高于4500英尺, 积雨云.
几率 40% :
短暂存在
从 24日的 15点(UTC)到 24日的 18点(UTC)
能見度: 5000
散云层高于3000英尺
雷暴, 小雨
成为
从 24日的 18点(UTC)到 24日的 20点(UTC)
多云层高于4000英尺

TAF: LRTC 241400Z 2415/2424 23008KT 9999 SCT045CB PROB40 TEMPO 2415/2418 5000 -TSRA SCT030 BECMG 2418/2420 BKN040

超过4000个机场的气象观测和天气预报(METAR&TAF报告)。

可查询的气象台以黄色和红色小点在地图上表示。

将鼠标移到小点上方,可查看气象台名称。

然后点击查看天气观测和预报。

如需切换地图:点击带黑十字的绿色按钮放大地图;点击带横线的绿色按钮缩小地图;或者点击绿色箭头查看邻近地区的地图。


METAR-TAF: